sensor_id;sensor_type;location;lat;lon;timestamp;pressure;altitude;pressure_sealevel;temperature;humidity
56671;BME280;42545;50.054;8.306;2022-10-23T00:01:46;100010.41;;;10.24;nan
56671;BME280;42545;50.054;8.306;2022-10-23T00:04:14;100016.56;;;10.23;nan
56671;BME280;42545;50.054;8.306;2022-10-23T00:06:43;100023.56;;;10.20;nan
56671;BME280;42545;50.054;8.306;2022-10-23T00:09:13;100005.88;;;10.16;nan
56671;BME280;42545;50.054;8.306;2022-10-23T00:11:41;100011.28;;;10.23;nan
56671;BME280;42545;50.054;8.306;2022-10-23T00:14:09;100016.59;;;10.24;nan
56671;BME280;42545;50.054;8.306;2022-10-23T00:16:36;100015.69;;;10.25;nan
56671;BME280;42545;50.054;8.306;2022-10-23T00:19:04;100016.53;;;10.21;nan
56671;BME280;42545;50.054;8.306;2022-10-23T00:21:31;100020.81;;;10.16;nan
56671;BME280;42545;50.054;8.306;2022-10-23T00:23:59;100010.19;;;10.10;nan
56671;BME280;42545;50.054;8.306;2022-10-23T00:26:26;100008.38;;;10.09;nan
56671;BME280;42545;50.054;8.306;2022-10-23T00:28:54;100005.72;;;10.07;nan
56671;BME280;42545;50.054;8.306;2022-10-23T00:31:22;100003.06;;;10.06;nan
56671;BME280;42545;50.054;8.306;2022-10-23T00:33:50;99999.47;;;10.00;nan
56671;BME280;42545;50.054;8.306;2022-10-23T00:36:19;100000.41;;;10.04;nan
56671;BME280;42545;50.054;8.306;2022-10-23T00:38:47;100001.25;;;10.03;nan
56671;BME280;42545;50.054;8.306;2022-10-23T00:41:19;99998.56;;;9.98;nan
56671;BME280;42545;50.054;8.306;2022-10-23T00:43:56;100003.78;;;9.95;nan
56671;BME280;42545;50.054;8.306;2022-10-23T00:46:24;99994.91;;;9.92;nan
56671;BME280;42545;50.054;8.306;2022-10-23T00:48:51;99987.03;;;9.93;nan
56671;BME280;42545;50.054;8.306;2022-10-23T00:51:18;99984.41;;;9.93;nan
56671;BME280;42545;50.054;8.306;2022-10-23T00:53:48;99971.19;;;9.92;nan
56671;BME280;42545;50.054;8.306;2022-10-23T00:56:18;99973.88;;;9.93;nan
56671;BME280;42545;50.054;8.306;2022-10-23T00:58:45;99964.13;;;9.91;nan
56671;BME280;42545;50.054;8.306;2022-10-23T01:01:16;99953.63;;;9.92;nan
56671;BME280;42545;50.054;8.306;2022-10-23T01:03:44;99950.16;;;9.93;nan
56671;BME280;42545;50.054;8.306;2022-10-23T01:06:14;99949.22;;;9.93;nan
56671;BME280;42545;50.054;8.306;2022-10-23T01:08:49;99948.34;;;9.92;nan
56671;BME280;42545;50.054;8.306;2022-10-23T01:11:24;99947.38;;;9.87;nan
56671;BME280;42545;50.054;8.306;2022-10-23T01:13:57;99953.50;;;9.85;nan
56671;BME280;42545;50.054;8.306;2022-10-23T01:16:33;99953.47;;;9.83;nan
56671;BME280;42545;50.054;8.306;2022-10-23T01:19:08;99963.16;;;9.84;nan
56671;BME280;42545;50.054;8.306;2022-10-23T01:21:46;99965.69;;;9.79;nan
56671;BME280;42545;50.054;8.306;2022-10-23T01:24:25;99945.34;;;9.71;nan
56671;BME280;42545;50.054;8.306;2022-10-23T01:27:13;99953.22;;;9.68;nan
56671;BME280;42545;50.054;8.306;2022-10-23T01:29:42;99948.75;;;9.65;nan
56671;BME280;42545;50.054;8.306;2022-10-23T01:32:15;99945.28;;;9.66;nan
56671;BME280;42545;50.054;8.306;2022-10-23T01:34:47;99947.94;;;9.68;nan
56671;BME280;42545;50.054;8.306;2022-10-23T01:37:21;99946.16;;;9.67;nan
56671;BME280;42545;50.054;8.306;2022-10-23T01:39:51;99942.59;;;9.65;nan
56671;BME280;42545;50.054;8.306;2022-10-23T01:42:28;99941.78;;;9.69;nan
56671;BME280;42545;50.054;8.306;2022-10-23T01:45:00;99943.50;;;9.67;nan
56671;BME280;42545;50.054;8.306;2022-10-23T01:47:29;99941.72;;;9.64;nan
56671;BME280;42545;50.054;8.306;2022-10-23T01:49:56;99947.78;;;9.60;nan
56671;BME280;42545;50.054;8.306;2022-10-23T01:52:24;99945.97;;;9.57;nan
56671;BME280;42545;50.054;8.306;2022-10-23T01:54:56;99945.03;;;9.54;nan
56671;BME280;42545;50.054;8.306;2022-10-23T01:57:28;99938.00;;;9.54;nan
56671;BME280;42545;50.054;8.306;2022-10-23T02:00:00;99931.03;;;9.55;nan
56671;BME280;42545;50.054;8.306;2022-10-23T02:02:31;99924.84;;;9.54;nan
56671;BME280;42545;50.054;8.306;2022-10-23T02:05:02;99917.84;;;9.55;nan
56671;BME280;42545;50.054;8.306;2022-10-23T02:07:29;99917.00;;;9.57;nan
56671;BME280;42545;50.054;8.306;2022-10-23T02:09:56;99917.94;;;9.61;nan
56671;BME280;42545;50.054;8.306;2022-10-23T02:12:33;99912.69;;;9.61;nan
56671;BME280;42545;50.054;8.306;2022-10-23T02:15:07;99918.78;;;9.60;nan
56671;BME280;42545;50.054;8.306;2022-10-23T02:17:43;99923.19;;;9.59;nan
56671;BME280;42545;50.054;8.306;2022-10-23T02:20:18;99926.69;;;9.58;nan
56671;BME280;42545;50.054;8.306;2022-10-23T02:22:54;99918.81;;;9.61;nan
56671;BME280;42545;50.054;8.306;2022-10-23T02:25:29;99907.44;;;9.62;nan
56671;BME280;42545;50.054;8.306;2022-10-23T02:28:02;99903.16;;;9.68;nan
56671;BME280;42545;50.054;8.306;2022-10-23T02:30:31;99890.84;;;9.68;nan
56671;BME280;42545;50.054;8.306;2022-10-23T02:33:01;99886.56;;;9.73;nan
56671;BME280;42545;50.054;8.306;2022-10-23T02:35:28;99882.25;;;9.80;nan
56671;BME280;42545;50.054;8.306;2022-10-23T02:37:57;99886.72;;;9.82;nan
56671;BME280;42545;50.054;8.306;2022-10-23T02:40:29;99893.75;;;9.85;nan
56671;BME280;42545;50.054;8.306;2022-10-23T02:43:07;99898.19;;;9.86;nan
56671;BME280;42545;50.054;8.306;2022-10-23T02:45:39;99899.94;;;9.87;nan
56671;BME280;42545;50.054;8.306;2022-10-23T02:48:16;99899.97;;;9.89;nan
56671;BME280;42545;50.054;8.306;2022-10-23T02:50:50;99897.34;;;9.89;nan
56671;BME280;42545;50.054;8.306;2022-10-23T02:53:28;99896.53;;;9.91;nan
56671;BME280;42545;50.054;8.306;2022-10-23T02:56:02;99893.88;;;9.91;nan
56671;BME280;42545;50.054;8.306;2022-10-23T02:58:42;99892.13;;;9.92;nan
56671;BME280;42545;50.054;8.306;2022-10-23T03:01:12;99892.03;;;9.87;nan
56671;BME280;42545;50.054;8.306;2022-10-23T03:03:44;99892.88;;;9.85;nan
56671;BME280;42545;50.054;8.306;2022-10-23T03:06:15;99898.06;;;9.78;nan
56671;BME280;42545;50.054;8.306;2022-10-23T03:08:43;99898.84;;;9.74;nan
56671;BME280;42545;50.054;8.306;2022-10-23T03:11:11;99896.16;;;9.70;nan
56671;BME280;42545;50.054;8.306;2022-10-23T03:13:39;99893.47;;;9.67;nan
56671;BME280;42545;50.054;8.306;2022-10-23T03:16:07;99899.50;;;9.61;nan
56671;BME280;42545;50.054;8.306;2022-10-23T03:18:34;99891.66;;;9.64;nan
56671;BME280;42545;50.054;8.306;2022-10-23T03:21:00;99887.25;;;9.63;nan
56671;BME280;42545;50.054;8.306;2022-10-23T03:23:28;99880.22;;;9.62;nan
56671;BME280;42545;50.054;8.306;2022-10-23T03:25:55;99876.72;;;9.63;nan
56671;BME280;42545;50.054;8.306;2022-10-23T03:28:22;99878.50;;;9.64;nan
56671;BME280;42545;50.054;8.306;2022-10-23T03:30:50;99866.19;;;9.65;nan
56671;BME280;42545;50.054;8.306;2022-10-23T03:33:17;99853.91;;;9.65;nan
56671;BME280;42545;50.054;8.306;2022-10-23T03:35:44;99842.53;;;9.66;nan
56671;BME280;42545;50.054;8.306;2022-10-23T03:38:13;99851.34;;;9.68;nan
56671;BME280;42545;50.054;8.306;2022-10-23T03:40:40;99863.63;;;9.68;nan
56671;BME280;42545;50.054;8.306;2022-10-23T03:43:07;99866.25;;;9.66;nan
56671;BME280;42545;50.054;8.306;2022-10-23T03:45:34;99859.22;;;9.67;nan
56671;BME280;42545;50.054;8.306;2022-10-23T03:48:07;99860.09;;;9.67;nan
56671;BME280;42545;50.054;8.306;2022-10-23T03:50:34;99854.81;;;9.66;nan
56671;BME280;42545;50.054;8.306;2022-10-23T03:53:01;99863.63;;;9.68;nan
56671;BME280;42545;50.054;8.306;2022-10-23T03:55:29;99865.34;;;9.66;nan
56671;BME280;42545;50.054;8.306;2022-10-23T03:57:56;99861.81;;;9.65;nan
56671;BME280;42545;50.054;8.306;2022-10-23T04:00:22;99859.16;;;9.63;nan
56671;BME280;42545;50.054;8.306;2022-10-23T04:02:49;99870.56;;;9.62;nan
56671;BME280;42545;50.054;8.306;2022-10-23T04:05:20;99867.97;;;9.64;nan
56671;BME280;42545;50.054;8.306;2022-10-23T04:07:48;99859.16;;;9.63;nan
56671;BME280;42545;50.054;8.306;2022-10-23T04:10:15;99865.28;;;9.62;nan
56671;BME280;42545;50.054;8.306;2022-10-23T04:12:43;99866.16;;;9.63;nan
56671;BME280;42545;50.054;8.306;2022-10-23T04:15:10;99862.69;;;9.64;nan
56671;BME280;42545;50.054;8.306;2022-10-23T04:17:37;99866.09;;;9.60;nan
56671;BME280;42545;50.054;8.306;2022-10-23T04:20:06;99870.44;;;9.56;nan
56671;BME280;42545;50.054;8.306;2022-10-23T04:22:35;99870.47;;;9.58;nan
56671;BME280;42545;50.054;8.306;2022-10-23T04:25:02;99872.22;;;9.57;nan
56671;BME280;42545;50.054;8.306;2022-10-23T04:27:29;99859.03;;;9.56;nan
56671;BME280;42545;50.054;8.306;2022-10-23T04:29:58;99853.81;;;9.59;nan
56671;BME280;42545;50.054;8.306;2022-10-23T04:32:25;99845.06;;;9.61;nan
56671;BME280;42545;50.054;8.306;2022-10-23T04:34:52;99836.28;;;9.61;nan
56671;BME280;42545;50.054;8.306;2022-10-23T04:37:19;99845.06;;;9.61;nan
56671;BME280;42545;50.054;8.306;2022-10-23T04:39:47;99845.97;;;9.63;nan
56671;BME280;42545;50.054;8.306;2022-10-23T04:42:14;99845.16;;;9.66;nan
56671;BME280;42545;50.054;8.306;2022-10-23T04:44:42;99857.47;;;9.66;nan
56671;BME280;42545;50.054;8.306;2022-10-23T04:47:09;99863.63;;;9.68;nan
56671;BME280;42545;50.054;8.306;2022-10-23T04:49:38;99863.63;;;9.68;nan
56671;BME280;42545;50.054;8.306;2022-10-23T04:52:04;99860.09;;;9.67;nan
56671;BME280;42545;50.054;8.306;2022-10-23T04:54:34;99847.75;;;9.65;nan
56671;BME280;42545;50.054;8.306;2022-10-23T04:57:03;99847.72;;;9.63;nan
56671;BME280;42545;50.054;8.306;2022-10-23T04:59:30;99847.66;;;9.60;nan
56671;BME280;42545;50.054;8.306;2022-10-23T05:01:58;99852.03;;;9.58;nan
56671;BME280;42545;50.054;8.306;2022-10-23T05:04:24;99866.91;;;9.54;nan
56671;BME280;42545;50.054;8.306;2022-10-23T05:06:51;99865.03;;;9.49;nan
56671;BME280;42545;50.054;8.306;2022-10-23T05:09:18;99858.00;;;9.46;nan
56671;BME280;42545;50.054;8.306;2022-10-23T05:11:46;99856.22;;;9.47;nan
56671;BME280;42545;50.054;8.306;2022-10-23T05:14:15;99858.84;;;9.45;nan
56671;BME280;42545;50.054;8.306;2022-10-23T05:16:46;99854.38;;;9.41;nan
56671;BME280;42545;50.054;8.306;2022-10-23T05:19:17;99851.72;;;9.39;nan
56671;BME280;42545;50.054;8.306;2022-10-23T05:21:47;99849.97;;;9.38;nan
56671;BME280;42545;50.054;8.306;2022-10-23T05:24:16;99848.19;;;9.39;nan
56671;BME280;42545;50.054;8.306;2022-10-23T05:26:43;99842.88;;;9.36;nan
56671;BME280;42545;50.054;8.306;2022-10-23T05:29:10;99839.28;;;9.32;nan
56671;BME280;42545;50.054;8.306;2022-10-23T05:31:38;99836.69;;;9.34;nan
56671;BME280;42545;50.054;8.306;2022-10-23T05:34:05;99836.72;;;9.35;nan
56671;BME280;42545;50.054;8.306;2022-10-23T05:36:33;99822.59;;;9.30;nan
56671;BME280;42545;50.054;8.306;2022-10-23T05:39:00;99824.41;;;9.33;nan
56671;BME280;42545;50.054;8.306;2022-10-23T05:41:28;99826.13;;;9.32;nan
56671;BME280;42545;50.054;8.306;2022-10-23T05:43:55;99831.44;;;9.34;nan
56671;BME280;42545;50.054;8.306;2022-10-23T05:46:22;99821.78;;;9.33;nan
56671;BME280;42545;50.054;8.306;2022-10-23T05:48:51;99811.25;;;9.34;nan
56671;BME280;42545;50.054;8.306;2022-10-23T05:51:18;99811.25;;;9.33;nan
56671;BME280;42545;50.054;8.306;2022-10-23T05:53:47;99799.84;;;9.34;nan
56671;BME280;42545;50.054;8.306;2022-10-23T05:56:14;99801.63;;;9.35;nan
56671;BME280;42545;50.054;8.306;2022-10-23T05:58:43;99806.88;;;9.35;nan
56671;BME280;42545;50.054;8.306;2022-10-23T06:01:12;99810.34;;;9.32;nan
56671;BME280;42545;50.054;8.306;2022-10-23T06:03:39;99809.41;;;9.30;nan
56671;BME280;42545;50.054;8.306;2022-10-23T06:06:08;99817.25;;;9.26;nan
56671;BME280;42545;50.054;8.306;2022-10-23T06:08:35;99816.25;;;9.19;nan
56671;BME280;42545;50.054;8.306;2022-10-23T06:11:06;99801.19;;;9.12;nan
56671;BME280;42545;50.054;8.306;2022-10-23T06:13:34;99808.97;;;9.04;nan
56671;BME280;42545;50.054;8.306;2022-10-23T06:16:07;99817.66;;;9.00;nan
56671;BME280;42545;50.054;8.306;2022-10-23T06:18:34;99814.00;;;8.92;nan
56671;BME280;42545;50.054;8.306;2022-10-23T06:21:02;99802.53;;;8.88;nan
56671;BME280;42545;50.054;8.306;2022-10-23T06:23:31;99802.53;;;8.88;nan
56671;BME280;42545;50.054;8.306;2022-10-23T06:25:58;99804.25;;;8.86;nan
56671;BME280;42545;50.054;8.306;2022-10-23T06:28:25;99799.84;;;8.87;nan
56671;BME280;42545;50.054;8.306;2022-10-23T06:30:52;99797.22;;;8.87;nan
56671;BME280;42545;50.054;8.306;2022-10-23T06:33:20;99798.97;;;8.86;nan
56671;BME280;42545;50.054;8.306;2022-10-23T06:35:47;99798.13;;;8.89;nan
56671;BME280;42545;50.054;8.306;2022-10-23T06:38:13;99794.66;;;8.90;nan
56671;BME280;42545;50.054;8.306;2022-10-23T06:40:42;99799.13;;;8.94;nan
56671;BME280;42545;50.054;8.306;2022-10-23T06:43:11;99813.19;;;8.96;nan
56671;BME280;42545;50.054;8.306;2022-10-23T06:45:38;99811.44;;;8.95;nan
56671;BME280;42545;50.054;8.306;2022-10-23T06:48:08;99802.63;;;8.93;nan
56671;BME280;42545;50.054;8.306;2022-10-23T06:50:35;99801.63;;;8.88;nan
56671;BME280;42545;50.054;8.306;2022-10-23T06:53:02;99803.50;;;8.93;nan
56671;BME280;42545;50.054;8.306;2022-10-23T06:55:30;99800.97;;;8.99;nan
56671;BME280;42545;50.054;8.306;2022-10-23T06:57:58;99795.81;;;9.04;nan
56671;BME280;42545;50.054;8.306;2022-10-23T07:00:27;99812.53;;;9.08;nan
56671;BME280;42545;50.054;8.306;2022-10-23T07:02:53;99809.06;;;9.10;nan
56671;BME280;42545;50.054;8.306;2022-10-23T07:05:20;99814.47;;;9.18;nan
56671;BME280;42545;50.054;8.306;2022-10-23T07:07:47;99811.97;;;9.24;nan
56671;BME280;42545;50.054;8.306;2022-10-23T07:10:14;99810.31;;;9.29;nan
56671;BME280;42545;50.054;8.306;2022-10-23T07:12:40;99819.13;;;9.34;nan
56671;BME280;42545;50.054;8.306;2022-10-23T07:15:10;99815.66;;;9.35;nan
56671;BME280;42545;50.054;8.306;2022-10-23T07:17:37;99816.59;;;9.39;nan
56671;BME280;42545;50.054;8.306;2022-10-23T07:20:04;99808.72;;;9.40;nan
56671;BME280;42545;50.054;8.306;2022-10-23T07:22:31;99811.41;;;9.43;nan
56671;BME280;42545;50.054;8.306;2022-10-23T07:24:58;99797.44;;;9.48;nan
56671;BME280;42545;50.054;8.306;2022-10-23T07:27:24;99798.41;;;9.53;nan
56671;BME280;42545;50.054;8.306;2022-10-23T07:29:52;99796.75;;;9.59;nan
56671;BME280;42545;50.054;8.306;2022-10-23T07:32:20;99795.09;;;9.66;nan
56671;BME280;42545;50.054;8.306;2022-10-23T07:34:48;99793.44;;;9.73;nan
56671;BME280;42545;50.054;8.306;2022-10-23T07:37:15;99789.13;;;9.78;nan
56671;BME280;42545;50.054;8.306;2022-10-23T07:39:42;99793.66;;;9.87;nan
56671;BME280;42545;50.054;8.306;2022-10-23T07:42:09;99779.72;;;9.94;nan
56671;BME280;42545;50.054;8.306;2022-10-23T07:44:37;99785.09;;;10.03;nan
56671;BME280;42545;50.054;8.306;2022-10-23T07:47:03;99782.66;;;10.15;nan
56671;BME280;42545;50.054;8.306;2022-10-23T07:49:32;99795.06;;;10.24;nan
56671;BME280;42545;50.054;8.306;2022-10-23T07:51:58;99791.69;;;10.33;nan
56671;BME280;42545;50.054;8.306;2022-10-23T07:54:25;99795.34;;;10.43;nan
56671;BME280;42545;50.054;8.306;2022-10-23T07:56:52;99787.56;;;10.53;nan
56671;BME280;42545;50.054;8.306;2022-10-23T07:59:18;99792.97;;;10.63;nan
56671;BME280;42545;50.054;8.306;2022-10-23T08:01:45;99784.25;;;10.71;nan
56671;BME280;42545;50.054;8.306;2022-10-23T08:04:12;99793.09;;;10.76;nan
56671;BME280;42545;50.054;8.306;2022-10-23T08:06:41;99795.84;;;10.84;nan
56671;BME280;42545;50.054;8.306;2022-10-23T08:09:07;99794.13;;;10.89;nan
56671;BME280;42545;50.054;8.306;2022-10-23T08:11:34;99795.97;;;10.98;nan
56671;BME280;42545;50.054;8.306;2022-10-23T08:14:03;99797.81;;;11.05;nan
56671;BME280;42545;50.054;8.306;2022-10-23T08:16:31;99804.94;;;11.12;nan
56671;BME280;42545;50.054;8.306;2022-10-23T08:19:00;99792.69;;;11.19;nan
56671;BME280;42545;50.054;8.306;2022-10-23T08:21:27;99795.38;;;11.25;nan
56671;BME280;42545;50.054;8.306;2022-10-23T08:23:57;99787.50;;;11.30;nan
56671;BME280;42545;50.054;8.306;2022-10-23T08:26:24;99783.13;;;11.35;nan
56671;BME280;42545;50.054;8.306;2022-10-23T08:28:53;99771.72;;;11.41;nan
56671;BME280;42545;50.054;8.306;2022-10-23T08:31:21;99769.16;;;11.48;nan
56671;BME280;42545;50.054;8.306;2022-10-23T08:33:48;99760.41;;;11.54;nan
56671;BME280;42545;50.054;8.306;2022-10-23T08:36:16;99755.16;;;11.60;nan
56671;BME280;42545;50.054;8.306;2022-10-23T08:38:44;99753.47;;;11.68;nan
56671;BME280;42545;50.054;8.306;2022-10-23T08:41:23;99750.03;;;11.82;nan
56671;BME280;42545;50.054;8.306;2022-10-23T08:43:55;99743.88;;;11.87;nan
56671;BME280;42545;50.054;8.306;2022-10-23T08:46:30;99736.91;;;11.94;nan
56671;BME280;42545;50.054;8.306;2022-10-23T08:49:09;99740.50;;;12.05;nan
56671;BME280;42545;50.054;8.306;2022-10-23T08:51:45;99740.53;;;12.13;nan
56671;BME280;42545;50.054;8.306;2022-10-23T08:54:14;99759.06;;;12.19;nan
56671;BME280;42545;50.054;8.306;2022-10-23T08:56:48;99769.69;;;12.24;nan
56671;BME280;42545;50.054;8.306;2022-10-23T08:59:19;99777.63;;;12.30;nan
56671;BME280;42545;50.054;8.306;2022-10-23T09:01:54;99764.47;;;12.38;nan
56671;BME280;42545;50.054;8.306;2022-10-23T09:04:24;99756.53;;;12.42;nan
56671;BME280;42545;50.054;8.306;2022-10-23T09:06:55;99752.13;;;12.46;nan
56671;BME280;42545;50.054;8.306;2022-10-23T09:09:45;99743.34;;;12.53;nan
56671;BME280;42545;50.054;8.306;2022-10-23T09:12:20;99745.13;;;12.59;nan
56671;BME280;42545;50.054;8.306;2022-10-23T09:14:55;99742.50;;;12.63;nan
56671;BME280;42545;50.054;8.306;2022-10-23T09:17:26;99741.63;;;12.67;nan
56671;BME280;42545;50.054;8.306;2022-10-23T09:19:59;99748.66;;;12.68;nan
56671;BME280;42545;50.054;8.306;2022-10-23T09:22:27;99744.28;;;12.71;nan
56671;BME280;42545;50.054;8.306;2022-10-23T09:24:54;99752.22;;;12.74;nan
56671;BME280;42545;50.054;8.306;2022-10-23T09:27:23;99746.06;;;12.78;nan
56671;BME280;42545;50.054;8.306;2022-10-23T09:29:51;99747.84;;;12.82;nan
56671;BME280;42545;50.054;8.306;2022-10-23T09:32:31;99739.03;;;12.89;nan
56671;BME280;42545;50.054;8.306;2022-10-23T09:34:58;99743.47;;;12.98;nan
56671;BME280;42545;50.054;8.306;2022-10-23T09:37:26;99756.72;;;12.98;nan
56671;BME280;42545;50.054;8.306;2022-10-23T09:40:00;99753.16;;;12.97;nan
56671;BME280;42545;50.054;8.306;2022-10-23T09:42:30;99742.59;;;13.03;nan
56671;BME280;42545;50.054;8.306;2022-10-23T09:44:57;99750.53;;;13.08;nan
56671;BME280;42545;50.054;8.306;2022-10-23T09:47:24;99742.59;;;13.14;nan
56671;BME280;42545;50.054;8.306;2022-10-23T09:49:55;99733.75;;;13.21;nan
56671;BME280;42545;50.054;8.306;2022-10-23T09:52:23;99727.63;;;13.32;nan
56671;BME280;42545;50.054;8.306;2022-10-23T09:54:55;99730.25;;;13.41;nan
56671;BME280;42545;50.054;8.306;2022-10-23T09:57:23;99729.38;;;13.57;nan
56671;BME280;42545;50.054;8.306;2022-10-23T09:59:59;99728.47;;;13.61;nan
56671;BME280;42545;50.054;8.306;2022-10-23T10:02:29;99722.31;;;13.65;nan
56671;BME280;42545;50.054;8.306;2022-10-23T10:04:57;99711.69;;;13.73;nan
56671;BME280;42545;50.054;8.306;2022-10-23T10:07:26;99709.91;;;13.80;nan
56671;BME280;42545;50.054;8.306;2022-10-23T10:09:54;99704.56;;;13.84;nan
56671;BME280;42545;50.054;8.306;2022-10-23T10:12:30;99704.53;;;13.91;nan
56671;BME280;42545;50.054;8.306;2022-10-23T10:15:10;99688.63;;;13.94;nan
56671;BME280;42545;50.054;8.306;2022-10-23T10:17:42;99672.69;;;14.01;nan
56671;BME280;42545;50.054;8.306;2022-10-23T10:20:23;99693.91;;;14.06;nan
56671;BME280;42545;50.054;8.306;2022-10-23T10:23:01;99702.75;;;14.10;nan
56671;BME280;42545;50.054;8.306;2022-10-23T10:25:34;99701.81;;;14.14;nan
56671;BME280;42545;50.054;8.306;2022-10-23T10:28:15;99692.97;;;14.18;nan
56671;BME280;42545;50.054;8.306;2022-10-23T10:30:58;99692.97;;;14.19;nan
56671;BME280;42545;50.054;8.306;2022-10-23T10:33:33;99689.44;;;14.20;nan
56671;BME280;42545;50.054;8.306;2022-10-23T10:36:08;99696.47;;;14.21;nan
56671;BME280;42545;50.054;8.306;2022-10-23T10:38:45;99687.66;;;14.24;nan
56671;BME280;42545;50.054;8.306;2022-10-23T10:41:32;99686.72;;;14.28;nan
56671;BME280;42545;50.054;8.306;2022-10-23T10:44:14;99682.31;;;14.29;nan
56671;BME280;42545;50.054;8.306;2022-10-23T10:46:55;99681.44;;;14.28;nan
56671;BME280;42545;50.054;8.306;2022-10-23T10:49:28;99676.13;;;14.25;nan
56671;BME280;42545;50.054;8.306;2022-10-23T10:52:04;99672.59;;;14.23;nan
56671;BME280;42545;50.054;8.306;2022-10-23T10:54:55;99667.28;;;14.21;nan
56671;BME280;42545;50.054;8.306;2022-10-23T10:57:29;99657.59;;;14.22;nan
56671;BME280;42545;50.054;8.306;2022-10-23T11:00:03;99665.50;;;14.23;nan
56671;BME280;42545;50.054;8.306;2022-10-23T11:02:39;99661.97;;;14.25;nan
56671;BME280;42545;50.054;8.306;2022-10-23T11:05:16;99655.75;;;14.27;nan
56671;BME280;42545;50.054;8.306;2022-10-23T11:07:53;99651.38;;;14.29;nan
56671;BME280;42545;50.054;8.306;2022-10-23T11:10:22;99630.97;;;14.33;nan
56671;BME280;42545;50.054;8.306;2022-10-23T11:12:49;99638.03;;;14.38;nan
56671;BME280;42545;50.054;8.306;2022-10-23T11:15:20;99638.03;;;14.38;nan
56671;BME280;42545;50.054;8.306;2022-10-23T11:17:54;99631.81;;;14.41;nan
56671;BME280;42545;50.054;8.306;2022-10-23T11:20:37;99617.69;;;14.39;nan
56671;BME280;42545;50.054;8.306;2022-10-23T11:23:20;99638.00;;;14.40;nan
56671;BME280;42545;50.054;8.306;2022-10-23T11:26:04;99636.25;;;14.42;nan
56671;BME280;42545;50.054;8.306;2022-10-23T11:28:46;99634.41;;;14.49;nan
56671;BME280;42545;50.054;8.306;2022-10-23T11:31:24;99635.28;;;14.55;nan
56671;BME280;42545;50.054;8.306;2022-10-23T11:34:12;99632.59;;;14.65;nan
56671;BME280;42545;50.054;8.306;2022-10-23T11:36:48;99628.13;;;14.71;nan
56671;BME280;42545;50.054;8.306;2022-10-23T11:39:19;99618.31;;;14.76;nan
56671;BME280;42545;50.054;8.306;2022-10-23T11:41:52;99598.84;;;14.77;nan
56671;BME280;42545;50.054;8.306;2022-10-23T11:44:42;99605.94;;;14.77;nan
56671;BME280;42545;50.054;8.306;2022-10-23T11:47:30;99628.06;;;14.77;nan
56671;BME280;42545;50.054;8.306;2022-10-23T11:50:15;99616.56;;;14.77;nan
56671;BME280;42545;50.054;8.306;2022-10-23T11:52:58;99608.53;;;14.85;nan
56671;BME280;42545;50.054;8.306;2022-10-23T11:55:29;99611.00;;;15.06;nan
56671;BME280;42545;50.054;8.306;2022-10-23T11:58:20;99621.44;;;15.28;nan
56671;BME280;42545;50.054;8.306;2022-10-23T12:01:03;99621.22;;;15.48;nan
56671;BME280;42545;50.054;8.306;2022-10-23T12:03:39;99604.28;;;15.58;nan
56671;BME280;42545;50.054;8.306;2022-10-23T12:06:24;99609.56;;;15.63;nan
56671;BME280;42545;50.054;8.306;2022-10-23T12:08:54;99596.09;;;15.78;nan
56671;BME280;42545;50.054;8.306;2022-10-23T12:11:38;99583.63;;;15.83;nan
56671;BME280;42545;50.054;8.306;2022-10-23T12:14:25;99576.44;;;15.90;nan
56671;BME280;42545;50.054;8.306;2022-10-23T12:16:53;99586.91;;;16.04;nan
56671;BME280;42545;50.054;8.306;2022-10-23T12:19:28;99576.13;;;16.11;nan
56671;BME280;42545;50.054;8.306;2022-10-23T12:22:00;99574.31;;;16.13;nan
56671;BME280;42545;50.054;8.306;2022-10-23T12:24:48;99572.44;;;16.22;nan
56671;BME280;42545;50.054;8.306;2022-10-23T12:27:27;99567.94;;;16.28;nan
56671;BME280;42545;50.054;8.306;2022-10-23T12:30:13;99561.78;;;16.23;nan
56671;BME280;42545;50.054;8.306;2022-10-23T12:32:51;99558.25;;;16.23;nan
56671;BME280;42545;50.054;8.306;2022-10-23T12:35:49;99541.31;;;16.28;nan
56671;BME280;42545;50.054;8.306;2022-10-23T12:38:21;99530.59;;;16.31;nan
56671;BME280;42545;50.054;8.306;2022-10-23T12:40:51;99526.03;;;16.40;nan
56671;BME280;42545;50.054;8.306;2022-10-23T12:43:26;99528.63;;;16.44;nan
56671;BME280;42545;50.054;8.306;2022-10-23T12:46:01;99510.81;;;16.48;nan
56671;BME280;42545;50.054;8.306;2022-10-23T12:48:32;99503.66;;;16.50;nan
56671;BME280;42545;50.054;8.306;2022-10-23T12:50:59;99499.25;;;16.50;nan
56671;BME280;42545;50.054;8.306;2022-10-23T12:53:27;99509.00;;;16.50;nan
56671;BME280;42545;50.054;8.306;2022-10-23T12:55:56;99503.75;;;16.47;nan
56671;BME280;42545;50.054;8.306;2022-10-23T12:58:25;99505.56;;;16.45;nan
56671;BME280;42545;50.054;8.306;2022-10-23T13:00:56;99502.06;;;16.41;nan
56671;BME280;42545;50.054;8.306;2022-10-23T13:03:25;99507.41;;;16.40;nan
56671;BME280;42545;50.054;8.306;2022-10-23T13:05:54;99502.09;;;16.38;nan
56671;BME280;42545;50.054;8.306;2022-10-23T13:08:28;99497.75;;;16.32;nan
56671;BME280;42545;50.054;8.306;2022-10-23T13:10:58;99506.59;;;16.34;nan
56671;BME280;42545;50.054;8.306;2022-10-23T13:13:25;99507.47;;;16.33;nan
56671;BME280;42545;50.054;8.306;2022-10-23T13:15:54;99495.06;;;16.36;nan
56671;BME280;42545;50.054;8.306;2022-10-23T13:18:22;99483.47;;;16.38;nan
56671;BME280;42545;50.054;8.306;2022-10-23T13:20:57;99478.13;;;16.40;nan
56671;BME280;42545;50.054;8.306;2022-10-23T13:23:31;99471.84;;;16.42;nan
56671;BME280;42545;50.054;8.306;2022-10-23T13:25:59;99469.16;;;16.44;nan
56671;BME280;42545;50.054;8.306;2022-10-23T13:28:28;99471.81;;;16.44;nan
56671;BME280;42545;50.054;8.306;2022-10-23T13:31:05;99448.72;;;16.46;nan
56671;BME280;42545;50.054;8.306;2022-10-23T13:33:35;99448.66;;;16.50;nan
56671;BME280;42545;50.054;8.306;2022-10-23T13:36:18;99448.66;;;16.49;nan
56671;BME280;42545;50.054;8.306;2022-10-23T13:38:59;99439.84;;;16.47;nan
56671;BME280;42545;50.054;8.306;2022-10-23T13:41:26;99435.41;;;16.44;nan
56671;BME280;42545;50.054;8.306;2022-10-23T13:43:53;99422.16;;;16.43;nan
56671;BME280;42545;50.054;8.306;2022-10-23T13:46:22;99407.06;;;16.43;nan
56671;BME280;42545;50.054;8.306;2022-10-23T13:48:49;99408.78;;;16.44;nan